Etusivu
METAR-TAF:

METAR-TAF

Lentoasemat :

Ljungbyhed, Ruotsi

Leveyspiiri: 56-04N, Pituuspiiri: 013-12E, korkeus merenpinnasta: 43 m

Tämänhetkinen sää

Tämä raportti tehtiin 16 minuuttia sitten, kello 09.50 UTC
Tuuli 9 kn lounaasta
Lämpötila 23°C
Kosteus 47%
Ilmanpaine 1023 hPa
Näkyvyys 10 km tai enemmän

METAR: ESTL 270950Z AUTO 23009KT 9999NDV NCD 23/11 Q1023

Aika: 12:06 (10:06 UTC)


TAF: puuttuu

Säähavainnot ja -ennusteet yli 4000 lentoasemalta (METAR- ja TAF-raportit).

Käytössä olevat sääasemat on merkitty karttaan keltaisilla ja punaisilla pisteillä.

Aseta hiiri pisteen päälle nähdäksesi sääaseman nimen.

Klikkaa sitten nähdäksesi säähavainnot ja -ennusteet.

Kartan vaihtaminen: klikkaa mustalla rastilla varustettuja vihreitä pisteitä, niin voit zoomata sisään; viivalla varustettua vihreää pistettä, niin voit zoomata ulos tai vihreitä nuolia, niin pääset viereisille kartoille.


METAR-TAF: